createdAt,value
2023-01-23T00:00:02.571Z,98622.02
2023-01-23T00:03:00.154Z,98622.87
2023-01-23T00:05:28.094Z,98619.61
2023-01-23T00:07:56.064Z,98619.95
2023-01-23T00:10:24.045Z,98622.86
2023-01-23T00:12:53.543Z,98626.80
2023-01-23T00:15:21.406Z,98624.89
2023-01-23T00:17:49.487Z,98625.41
2023-01-23T00:20:17.768Z,98628.48
2023-01-23T00:22:45.932Z,98629.87
2023-01-23T00:25:13.901Z,98630.04
2023-01-23T00:27:41.879Z,98630.19
2023-01-23T00:30:10.913Z,98632.09
2023-01-23T00:32:38.940Z,98633.30
2023-01-23T00:35:07.113Z,98633.64
2023-01-23T00:37:35.202Z,98639.47
2023-01-23T00:40:03.863Z,98636.54
2023-01-23T00:42:31.778Z,98638.08
2023-01-23T00:45:01.339Z,98641.49
2023-01-23T00:47:29.310Z,98644.91
2023-01-23T00:49:59.235Z,98639.95
2023-01-23T00:52:27.916Z,98640.77
2023-01-23T00:54:55.887Z,98643.98
2023-01-23T00:57:23.848Z,98644.30
2023-01-23T00:59:51.818Z,98648.38
2023-01-23T01:02:19.690Z,98650.73
2023-01-23T01:04:48.065Z,98653.06
2023-01-23T01:07:16.040Z,98650.76
2023-01-23T01:09:43.937Z,98656.50
2023-01-23T01:12:11.824Z,98660.13
2023-01-23T01:14:39.747Z,98660.16
2023-01-23T01:17:08.533Z,98660.04
2023-01-23T01:19:36.701Z,98662.66
2023-01-23T01:22:04.538Z,98662.69
2023-01-23T01:24:32.437Z,98664.98
2023-01-23T01:27:00.330Z,98670.08
2023-01-23T01:29:28.237Z,98668.50
2023-01-23T01:31:56.301Z,98671.05
2023-01-23T01:34:24.334Z,98669.10
2023-01-23T01:36:52.386Z,98669.77
2023-01-23T01:39:20.251Z,98675.64
2023-01-23T01:41:48.533Z,98675.84
2023-01-23T01:44:21.925Z,98677.59
2023-01-23T01:46:50.468Z,98677.94
2023-01-23T01:49:30.145Z,98676.41
2023-01-23T01:52:04.778Z,98677.46
2023-01-23T01:54:51.148Z,98676.11
2023-01-23T01:57:22.077Z,98678.70
2023-01-23T01:59:55.207Z,98676.48
2023-01-23T02:02:25.385Z,98674.06
2023-01-23T02:04:58.012Z,98676.10
2023-01-23T02:07:32.514Z,98679.88
2023-01-23T02:10:02.243Z,98678.02
2023-01-23T02:12:32.065Z,98682.69
2023-01-23T02:15:00.336Z,98686.86
2023-01-23T02:17:28.812Z,98690.54
2023-01-23T02:19:58.121Z,98689.90
2023-01-23T02:22:26.207Z,98689.27
2023-01-23T02:25:15.400Z,98692.04
2023-01-23T02:27:45.265Z,98695.85
2023-01-23T02:30:16.107Z,98694.30
2023-01-23T02:32:44.174Z,98690.36
2023-01-23T02:35:19.280Z,98689.50
2023-01-23T02:37:49.021Z,98691.56
2023-01-23T02:40:17.251Z,98690.02
2023-01-23T02:42:46.653Z,98690.02
2023-01-23T02:45:16.717Z,98692.57
2023-01-23T02:47:45.712Z,98691.88
2023-01-23T02:50:13.790Z,98695.83
2023-01-23T02:52:41.856Z,98693.96
2023-01-23T02:55:09.823Z,98697.05
2023-01-23T02:57:37.794Z,98697.06
2023-01-23T03:00:20.532Z,98699.33
2023-01-23T03:02:50.129Z,98699.84
2023-01-23T03:05:19.022Z,98697.97
2023-01-23T03:07:46.983Z,98699.70
2023-01-23T03:10:15.259Z,98701.61
2023-01-23T03:12:45.482Z,98702.14
2023-01-23T03:15:15.099Z,98694.42
2023-01-23T03:17:43.159Z,98698.73
2023-01-23T03:20:11.438Z,98698.91
2023-01-23T03:22:40.869Z,98701.33
2023-01-23T03:25:09.540Z,98703.05
2023-01-23T03:27:37.802Z,98701.34
2023-01-23T03:30:16.255Z,98704.26
2023-01-23T03:32:45.079Z,98701.19
2023-01-23T03:35:16.777Z,98699.66
2023-01-23T03:37:46.379Z,98701.54
2023-01-23T03:40:54.791Z,98698.47
2023-01-23T03:43:23.368Z,98696.77
2023-01-23T03:45:51.421Z,98695.58
2023-01-23T03:48:19.824Z,98697.66
2023-01-23T03:50:48.062Z,98698.37
2023-01-23T03:53:18.179Z,98704.06
2023-01-23T03:55:47.622Z,98703.92
2023-01-23T03:58:15.801Z,98704.48
2023-01-23T04:00:45.643Z,98701.60
2023-01-23T04:03:14.291Z,98705.93
2023-01-23T04:05:42.824Z,98708.71
2023-01-23T04:08:10.663Z,98709.94
2023-01-23T04:10:38.718Z,98712.21
2023-01-23T04:13:12.833Z,98712.90
2023-01-23T04:15:41.617Z,98716.17
2023-01-23T04:18:09.688Z,98723.73
2023-01-23T04:20:37.765Z,98723.03
2023-01-23T04:23:06.137Z,98722.17
2023-01-23T04:25:34.210Z,98723.52
2023-01-23T04:28:04.942Z,98726.06
2023-01-23T04:30:33.708Z,98727.94
2023-01-23T04:33:05.906Z,98732.88
2023-01-23T04:35:34.417Z,98729.90
2023-01-23T04:38:03.688Z,98730.86
2023-01-23T04:40:31.605Z,98731.81
2023-01-23T04:43:00.504Z,98733.97
2023-01-23T04:45:44.324Z,98736.10
2023-01-23T04:48:30.173Z,98736.36
2023-01-23T04:50:58.982Z,98738.30
2023-01-23T04:53:27.135Z,98740.99
2023-01-23T04:56:00.753Z,98740.43
2023-01-23T04:58:29.120Z,98743.19
2023-01-23T05:01:03.187Z,98745.05
2023-01-23T05:03:34.995Z,98746.86
2023-01-23T05:06:03.094Z,98744.03
2023-01-23T05:08:31.000Z,98744.52
2023-01-23T05:11:22.345Z,98752.43
2023-01-23T05:13:50.520Z,98754.15
2023-01-23T05:16:19.518Z,98754.73
2023-01-23T05:19:06.068Z,98756.34
2023-01-23T05:21:35.215Z,98759.48
2023-01-23T05:24:03.396Z,98765.80
2023-01-23T05:26:31.393Z,98767.38
2023-01-23T05:28:59.545Z,98770.51
2023-01-23T05:31:27.586Z,98772.25
2023-01-23T05:34:27.699Z,98776.94
2023-01-23T05:36:56.389Z,98776.65
2023-01-23T05:39:25.105Z,98778.77
2023-01-23T05:41:52.968Z,98779.98
2023-01-23T05:44:26.774Z,98782.40
2023-01-23T05:47:00.586Z,98787.23
2023-01-23T05:49:28.661Z,98788.44
2023-01-23T05:51:56.936Z,98792.22
2023-01-23T05:54:25.823Z,98793.08
2023-01-23T05:56:54.206Z,98792.75
2023-01-23T05:59:37.434Z,98797.79
2023-01-23T06:02:27.182Z,98802.98
2023-01-23T06:05:27.526Z,98803.68
2023-01-23T06:08:08.003Z,98803.00
2023-01-23T06:10:37.375Z,98806.63
2023-01-23T06:13:05.580Z,98808.00
2023-01-23T06:15:33.725Z,98806.13
2023-01-23T06:18:04.723Z,98811.25
2023-01-23T06:20:32.763Z,98812.09
2023-01-23T06:23:01.460Z,98815.16
2023-01-23T06:25:29.618Z,98816.31
2023-01-23T06:27:58.922Z,98821.44
2023-01-23T06:30:28.629Z,98820.68
2023-01-23T06:32:56.787Z,98824.25
2023-01-23T06:35:31.544Z,98827.97
2023-01-23T06:37:59.479Z,98831.69
2023-01-23T06:40:27.579Z,98833.86
2023-01-23T06:43:25.199Z,98838.92
2023-01-23T06:45:54.233Z,98836.24
2023-01-23T06:48:22.714Z,98840.81
2023-01-23T06:50:50.954Z,98844.30
2023-01-23T06:53:19.214Z,98845.37
2023-01-23T06:55:48.066Z,98845.39
2023-01-23T06:58:16.335Z,98846.63
2023-01-23T07:00:44.811Z,98846.80
2023-01-23T07:03:19.105Z,98846.61
2023-01-23T07:05:47.002Z,98845.94
2023-01-23T07:08:14.865Z,98845.44
2023-01-23T07:10:42.934Z,98850.23
2023-01-23T07:13:11.561Z,98852.45
2023-01-23T07:15:44.867Z,98847.52
2023-01-23T07:18:12.890Z,98845.48
2023-01-23T07:20:43.716Z,98841.81
2023-01-23T07:23:11.794Z,98840.64
2023-01-23T07:25:40.185Z,98837.10
2023-01-23T07:28:08.257Z,98839.11
2023-01-23T07:30:36.262Z,98840.79
2023-01-23T07:33:04.496Z,98840.83
2023-01-23T07:35:32.361Z,98842.23
2023-01-23T07:38:00.190Z,98841.90
2023-01-23T07:40:28.360Z,98845.97
2023-01-23T07:42:56.770Z,98849.57
2023-01-23T07:45:24.765Z,98850.73
2023-01-23T07:47:52.709Z,98850.04
2023-01-23T07:50:20.966Z,98841.95
2023-01-23T07:52:49.004Z,98844.19
2023-01-23T07:55:16.946Z,98841.41
2023-01-23T07:57:45.115Z,98844.55
2023-01-23T08:00:13.293Z,98848.38
2023-01-23T08:02:41.212Z,98847.00
2023-01-23T08:05:09.250Z,98847.30
2023-01-23T08:07:37.099Z,98850.06
2023-01-23T08:10:05.368Z,98850.08
2023-01-23T08:12:33.343Z,98848.25
2023-01-23T08:15:01.481Z,98846.82
2023-01-23T08:17:29.380Z,98846.12
2023-01-23T08:19:57.352Z,98850.44
2023-01-23T08:22:25.286Z,98847.27
2023-01-23T08:24:53.395Z,98843.23
2023-01-23T08:27:21.465Z,98836.34
2023-01-23T08:29:49.433Z,98836.06
2023-01-23T08:32:17.396Z,98836.99
2023-01-23T08:34:45.249Z,98836.09
2023-01-23T08:37:13.144Z,98834.92
2023-01-23T08:39:41.205Z,98836.42
2023-01-23T08:42:09.180Z,98834.36
2023-01-23T08:44:37.149Z,98831.37
2023-01-23T08:47:05.003Z,98829.36
2023-01-23T08:49:32.889Z,98828.91
2023-01-23T08:52:00.847Z,98824.52
2023-01-23T08:54:28.819Z,98822.02
2023-01-23T08:56:56.792Z,98820.27
2023-01-23T08:59:27.020Z,98819.76
2023-01-23T09:01:54.887Z,98818.02
2023-01-23T09:04:22.744Z,98817.84
2023-01-23T09:06:50.608Z,98816.06
2023-01-23T09:09:18.520Z,98817.70
2023-01-23T09:11:46.969Z,98816.13
2023-01-23T09:14:14.840Z,98812.21
2023-01-23T09:16:42.802Z,98812.13
2023-01-23T09:19:12.730Z,98809.94
2023-01-23T09:21:40.686Z,98811.06
2023-01-23T09:24:08.961Z,98808.27
2023-01-23T09:26:37.729Z,98805.83
2023-01-23T09:29:05.923Z,98804.44
2023-01-23T09:31:34.144Z,98802.42
2023-01-23T09:34:04.010Z,98799.38
2023-01-23T09:36:42.562Z,98796.50
2023-01-23T09:39:11.650Z,98795.21
2023-01-23T09:41:39.950Z,98794.83
2023-01-23T09:44:35.542Z,98792.14
2023-01-23T09:47:09.404Z,98794.55
2023-01-23T09:49:46.152Z,98792.04
2023-01-23T09:52:21.596Z,98790.78
2023-01-23T09:54:49.411Z,98783.09
2023-01-23T09:57:20.605Z,98784.72
2023-01-23T10:00:00.187Z,98780.34
2023-01-23T10:02:29.041Z,98779.45
2023-01-23T10:04:58.667Z,98778.48
2023-01-23T10:07:29.591Z,98777.80
2023-01-23T10:10:00.629Z,98773.84
2023-01-23T10:12:28.586Z,98773.70
2023-01-23T10:14:59.473Z,98771.77
2023-01-23T10:17:37.618Z,98770.81
2023-01-23T10:20:25.412Z,98775.10
2023-01-23T10:23:11.740Z,98775.63
2023-01-23T10:25:41.109Z,98771.63
2023-01-23T10:28:29.296Z,98765.04
2023-01-23T10:31:00.855Z,98761.70
2023-01-23T10:33:36.412Z,98760.92
2023-01-23T10:36:24.073Z,98757.79
2023-01-23T10:38:55.175Z,98755.16
2023-01-23T10:41:23.657Z,98754.08
2023-01-23T10:43:52.730Z,98752.48
2023-01-23T10:46:22.715Z,98748.08
2023-01-23T10:48:51.687Z,98744.92
2023-01-23T10:51:46.304Z,98742.08
2023-01-23T10:54:31.408Z,98738.13
2023-01-23T10:57:09.471Z,98741.06
2023-01-23T10:59:40.235Z,98737.67
2023-01-23T11:02:14.610Z,98737.02
2023-01-23T11:04:43.479Z,98736.39
2023-01-23T11:07:16.062Z,98732.23
2023-01-23T11:09:48.679Z,98728.92
2023-01-23T11:12:18.776Z,98721.97
2023-01-23T11:14:46.885Z,98719.29
2023-01-23T11:17:25.087Z,98718.51
2023-01-23T11:19:54.462Z,98713.86
2023-01-23T11:22:28.423Z,98709.30
2023-01-23T11:24:56.303Z,98707.55
2023-01-23T11:27:26.716Z,98706.62
2023-01-23T11:30:13.340Z,98699.33
2023-01-23T11:32:55.741Z,98704.90
2023-01-23T11:35:42.781Z,98699.30
2023-01-23T11:38:12.748Z,98697.80
2023-01-23T11:40:40.609Z,98698.45
2023-01-23T11:43:14.043Z,98694.88
2023-01-23T11:45:43.619Z,98694.41
2023-01-23T11:48:11.489Z,98690.02
2023-01-23T11:50:59.733Z,98685.85
2023-01-23T11:53:43.695Z,98684.53
2023-01-23T11:56:23.945Z,98684.56
2023-01-23T11:59:09.798Z,98686.33
2023-01-23T12:02:03.040Z,98683.70
2023-01-23T12:04:40.560Z,98682.34
2023-01-23T12:07:34.493Z,98682.80
2023-01-23T12:10:11.500Z,98682.00
2023-01-23T12:12:42.026Z,98677.58
2023-01-23T12:15:17.426Z,98675.34
2023-01-23T12:17:45.308Z,98680.16
2023-01-23T12:20:15.975Z,98682.05
2023-01-23T12:22:58.817Z,98678.45
2023-01-23T12:25:33.985Z,98681.07
2023-01-23T12:28:08.901Z,98684.44
2023-01-23T12:30:55.765Z,98686.05
2023-01-23T12:33:23.673Z,98686.87
2023-01-23T12:36:09.798Z,98686.31
2023-01-23T12:38:40.810Z,98689.82
2023-01-23T12:41:08.634Z,98689.75
2023-01-23T12:43:42.724Z,98690.80
2023-01-23T12:46:34.579Z,98691.66
2023-01-23T12:49:20.152Z,98689.86
2023-01-23T12:51:52.654Z,98692.81
2023-01-23T12:54:27.987Z,98695.36
2023-01-23T12:56:56.328Z,98696.95
2023-01-23T12:59:33.641Z,98699.87
2023-01-23T13:02:09.841Z,98700.23
2023-01-23T13:04:52.747Z,98700.58
2023-01-23T13:07:26.731Z,98699.59
2023-01-23T13:09:54.556Z,98698.54
2023-01-23T13:12:23.918Z,98696.33
2023-01-23T13:15:34.369Z,98692.79
2023-01-23T13:18:02.729Z,98697.89
2023-01-23T13:20:50.154Z,98698.70
2023-01-23T13:23:21.312Z,98701.73
2023-01-23T13:25:49.812Z,98708.58
2023-01-23T13:28:43.998Z,98704.92
2023-01-23T13:31:31.329Z,98706.99
2023-01-23T13:34:14.563Z,98706.43
2023-01-23T13:36:53.211Z,98706.63
2023-01-23T13:39:22.988Z,98709.23
2023-01-23T13:41:50.878Z,98709.66
2023-01-23T13:44:35.822Z,98707.45
2023-01-23T14:21:59.555Z,98733.31
2023-01-23T14:24:45.357Z,98731.40
2023-01-23T14:27:21.507Z,98735.29
2023-01-23T14:30:09.338Z,98733.56
2023-01-23T14:32:38.438Z,98737.79
2023-01-23T14:35:18.153Z,98737.32
2023-01-23T14:37:46.805Z,98742.76
2023-01-23T14:40:25.874Z,98744.45
2023-01-23T14:43:00.544Z,98747.80
2023-01-23T14:45:30.854Z,98751.99
2023-01-23T14:48:05.944Z,98755.30
2023-01-23T14:50:34.808Z,98760.02
2023-01-23T14:53:07.059Z,98763.55
2023-01-23T14:55:38.095Z,98769.44
2023-01-23T14:58:07.655Z,98770.84
2023-01-23T15:00:35.869Z,98770.65
2023-01-23T15:03:04.444Z,98771.05
2023-01-23T15:05:33.678Z,98773.84
2023-01-23T15:08:03.681Z,98778.27
2023-01-23T15:10:36.536Z,98779.34
2023-01-23T15:13:11.849Z,98781.35
2023-01-23T15:15:44.916Z,98777.45
2023-01-23T15:18:22.051Z,98779.48
2023-01-23T15:20:54.367Z,98779.09
2023-01-23T15:23:22.374Z,98781.52
2023-01-23T15:26:08.122Z,98783.42
2023-01-23T15:28:40.439Z,98782.98
2023-01-23T15:31:25.240Z,98785.56
2023-01-23T15:33:53.539Z,98785.83
2023-01-23T15:36:21.327Z,98792.42
2023-01-23T15:38:49.202Z,98795.17
2023-01-23T15:41:23.809Z,98792.53
2023-01-23T15:43:54.770Z,98794.91
2023-01-23T15:46:22.691Z,98793.49
2023-01-23T15:48:50.608Z,98798.86
2023-01-23T15:51:18.438Z,98801.02
2023-01-23T15:53:46.261Z,98804.86
2023-01-23T15:56:24.423Z,98807.80
2023-01-23T15:58:52.261Z,98815.48
2023-01-23T16:01:20.490Z,98819.88
2023-01-23T16:03:48.537Z,98826.84
2023-01-23T16:06:21.188Z,98830.41
2023-01-23T16:09:00.958Z,98831.14
2023-01-23T16:11:34.538Z,98834.77
2023-01-23T16:14:02.607Z,98831.65
2023-01-23T16:16:30.610Z,98831.98
2023-01-23T16:18:58.541Z,98831.02
2023-01-23T16:21:28.769Z,98835.94
2023-01-23T16:23:57.589Z,98841.35
2023-01-23T16:26:26.545Z,98847.21
2023-01-23T16:29:01.959Z,98848.67
2023-01-23T16:31:40.270Z,98846.08
2023-01-23T16:34:08.375Z,98844.63
2023-01-23T16:36:36.583Z,98850.04
2023-01-23T16:39:06.119Z,98851.86
2023-01-23T16:41:34.218Z,98852.16
2023-01-23T16:44:02.527Z,98853.61
2023-01-23T16:46:30.380Z,98859.91
2023-01-23T16:48:58.577Z,98861.25
2023-01-23T16:51:26.475Z,98859.58
2023-01-23T16:53:56.203Z,98862.76
2023-01-23T16:56:33.201Z,98861.70
2023-01-23T16:59:03.129Z,98862.62
2023-01-23T17:01:33.751Z,98864.21
2023-01-23T17:04:03.927Z,98865.23
2023-01-23T17:06:32.261Z,98869.16
2023-01-23T17:09:00.232Z,98868.45
2023-01-23T17:11:36.557Z,98872.38
2023-01-23T17:14:06.864Z,98866.65
2023-01-23T17:16:34.996Z,98867.56
2023-01-23T17:19:07.050Z,98868.55
2023-01-23T17:21:34.953Z,98868.94
2023-01-23T17:24:02.961Z,98868.48
2023-01-23T17:26:31.071Z,98870.56
2023-01-23T17:28:59.450Z,98869.52
2023-01-23T17:31:28.477Z,98872.84
2023-01-23T17:33:56.409Z,98873.11
2023-01-23T17:36:26.306Z,98874.00
2023-01-23T17:39:00.366Z,98877.39
2023-01-23T17:41:28.533Z,98875.52
2023-01-23T17:43:56.596Z,98877.25
2023-01-23T17:46:27.057Z,98877.33
2023-01-23T17:48:55.860Z,98882.26
2023-01-23T17:51:24.299Z,98881.89
2023-01-23T17:53:52.558Z,98878.33
2023-01-23T17:56:20.668Z,98881.45
2023-01-23T17:58:48.694Z,98884.30
2023-01-23T18:01:19.476Z,98885.38
2023-01-23T18:03:48.288Z,98884.83
2023-01-23T18:06:16.294Z,98883.38
2023-01-23T18:08:44.565Z,98883.55
2023-01-23T18:11:32.631Z,98882.61
2023-01-23T18:14:02.037Z,98883.24
2023-01-23T18:16:36.799Z,98890.10
2023-01-23T18:19:13.826Z,98890.64
2023-01-23T18:21:41.897Z,98887.80
2023-01-23T18:24:16.019Z,98885.30
2023-01-23T18:26:48.109Z,98882.29
2023-01-23T18:29:22.228Z,98885.56
2023-01-23T18:31:53.373Z,98893.73
2023-01-23T18:34:21.405Z,98892.05
2023-01-23T18:36:49.367Z,98897.54
2023-01-23T18:39:20.306Z,98901.94
2023-01-23T18:41:59.238Z,98903.73
2023-01-23T18:44:29.230Z,98907.75
2023-01-23T18:46:57.427Z,98906.04
2023-01-23T18:49:32.798Z,98907.36
2023-01-23T18:52:09.187Z,98911.93
2023-01-23T18:54:40.298Z,98910.47
2023-01-23T18:57:08.261Z,98910.73
2023-01-23T18:59:54.542Z,98914.15
2023-01-23T19:02:22.478Z,98915.83
2023-01-23T19:05:16.916Z,98921.96
2023-01-23T19:07:45.724Z,98927.61
2023-01-23T19:10:18.515Z,98931.89
2023-01-23T19:13:03.945Z,98938.70
2023-01-23T19:15:31.770Z,98942.77
2023-01-23T19:18:11.647Z,98945.73
2023-01-23T19:20:43.231Z,98945.27
2023-01-23T19:23:32.809Z,98946.36
2023-01-23T19:26:00.754Z,98948.57
2023-01-23T19:28:28.942Z,98946.44
2023-01-23T19:30:56.987Z,98946.56
2023-01-23T19:33:24.932Z,98946.98
2023-01-23T19:35:56.564Z,98947.42
2023-01-23T19:38:24.514Z,98946.29
2023-01-23T19:40:52.395Z,98951.67
2023-01-23T19:43:20.621Z,98954.13
2023-01-23T19:45:48.528Z,98951.77
2023-01-23T19:48:16.488Z,98953.18
2023-01-23T19:50:44.681Z,98951.89
2023-01-23T19:53:14.064Z,98951.48
2023-01-23T19:55:42.051Z,98949.14
2023-01-23T19:58:10.126Z,98951.05
2023-01-23T20:00:38.084Z,98949.92
2023-01-23T20:03:06.253Z,98953.48
2023-01-23T20:05:34.119Z,98953.41
2023-01-23T20:08:01.996Z,98955.55
2023-01-23T20:10:30.063Z,98954.39
2023-01-23T20:12:58.032Z,98956.31
2023-01-23T20:15:27.701Z,98958.82
2023-01-23T20:17:55.827Z,98959.23
2023-01-23T20:20:24.138Z,98961.52
2023-01-23T20:22:53.608Z,98968.46
2023-01-23T20:25:21.885Z,98972.27
2023-01-23T20:27:49.937Z,98978.85
2023-01-23T20:30:19.308Z,98981.95
2023-01-23T20:32:47.828Z,98979.39
2023-01-23T20:35:15.791Z,98982.85
2023-01-23T20:37:43.665Z,98985.48
2023-01-23T20:40:11.902Z,98989.64
2023-01-23T20:42:40.379Z,98997.05
2023-01-23T20:45:08.596Z,98998.81
2023-01-23T20:47:36.605Z,99005.20
2023-01-23T20:50:08.692Z,99007.80
2023-01-23T20:52:55.335Z,99014.00
2023-01-23T20:55:23.518Z,99017.26
2023-01-23T20:58:10.428Z,99020.89
2023-01-23T21:00:38.292Z,99025.88
2023-01-23T21:03:06.438Z,99026.25
2023-01-23T21:05:34.439Z,99025.75
2023-01-23T21:08:02.512Z,99029.89
2023-01-23T21:10:30.482Z,99029.91
2023-01-23T21:12:58.344Z,99030.95
2023-01-23T21:15:27.685Z,99031.48
2023-01-23T21:17:55.725Z,99033.36
2023-01-23T21:20:23.788Z,99034.42
2023-01-23T21:22:51.763Z,99034.94
2023-01-23T21:25:19.964Z,99037.36
2023-01-23T21:27:48.411Z,99037.54
2023-01-23T21:30:16.595Z,99041.16
2023-01-23T21:32:44.555Z,99040.81
2023-01-23T21:35:12.424Z,99041.68
2023-01-23T21:37:42.034Z,99039.80
2023-01-23T21:40:10.412Z,99043.57
2023-01-23T21:42:38.381Z,99040.15
2023-01-23T21:45:06.553Z,99037.76
2023-01-23T21:47:34.528Z,99034.67
2023-01-23T21:50:02.596Z,99035.20
2023-01-23T21:52:30.485Z,99035.03
2023-01-23T21:54:58.541Z,99034.17
2023-01-23T21:57:26.507Z,99033.33
2023-01-23T22:00:13.859Z,99035.38
2023-01-23T22:02:41.955Z,99033.31
2023-01-23T22:05:10.150Z,99031.44
2023-01-23T22:07:38.250Z,99032.80
2023-01-23T22:10:06.746Z,99032.11
2023-01-23T22:12:34.810Z,99032.81
2023-01-23T22:15:02.679Z,99029.55
2023-01-23T22:17:30.842Z,99034.35
2023-01-23T22:19:58.709Z,99033.66
2023-01-23T22:22:26.539Z,99033.66
2023-01-23T22:24:54.448Z,99031.27
2023-01-23T22:27:23.326Z,99032.11
2023-01-23T22:29:51.406Z,99032.80
2023-01-23T22:32:19.438Z,99029.03
2023-01-23T22:34:47.481Z,99030.23
2023-01-23T22:37:15.413Z,99028.17
2023-01-23T22:39:44.312Z,99025.60
2023-01-23T22:42:12.274Z,99024.56
2023-01-23T22:44:40.252Z,99026.11
2023-01-23T22:47:08.890Z,99022.85
2023-01-23T22:49:36.794Z,99023.20
2023-01-23T22:52:05.081Z,99020.80
2023-01-23T22:54:33.050Z,99023.19
2023-01-23T22:57:01.237Z,99019.77
2023-01-23T22:59:29.076Z,99018.89
2023-01-23T23:01:56.846Z,99020.27
2023-01-23T23:04:24.824Z,99019.22
2023-01-23T23:06:52.791Z,99016.65
2023-01-23T23:09:20.761Z,99014.42
2023-01-23T23:11:50.279Z,99017.48
2023-01-23T23:14:18.853Z,99022.95
2023-01-23T23:16:46.715Z,99021.21
2023-01-23T23:19:14.693Z,99021.55
2023-01-23T23:21:42.525Z,99024.62
2023-01-23T23:24:12.419Z,99018.62
2023-01-23T23:26:40.441Z,99020.30
2023-01-23T23:29:08.337Z,99022.00
2023-01-23T23:31:36.463Z,99017.55
2023-01-23T23:34:04.555Z,99021.64
2023-01-23T23:36:32.659Z,99021.96
2023-01-23T23:39:00.649Z,99022.98
2023-01-23T23:41:28.633Z,99019.36
2023-01-23T23:43:56.633Z,99015.09
2023-01-23T23:46:24.610Z,99016.45
2023-01-23T23:48:52.480Z,99013.20
2023-01-23T23:51:22.879Z,99013.52
2023-01-23T23:53:50.885Z,99014.02
2023-01-23T23:56:20.510Z,99016.05
2023-01-23T23:58:48.709Z,99015.02
